Time;durP1;ratioP1;P1;durP2;ratioP2;P2;SDS_P1;SDS_P2;PMS_P1;PMS_P2;Temp;Humidity;BMP_temperature;BMP_pressure;BME280_temperature;BME280_humidity;BME280_pressure;Samples;Min_cycle;Max_cycle;Signal;HPM_P1;HPM_P2
2022/07/06 00:00:24;;;;;;;0.80;0.60;;;22.80;45.70;23.40;96884.00;;;;5055294;28;20288;-90
2022/07/06 00:02:51;;;;;;;1.90;0.63;;;22.80;46.20;23.40;96889.00;;;;5055389;28;20224;-91
2022/07/06 00:05:20;;;;;;;0.40;0.40;;;22.70;46.40;23.30;96882.00;;;;5055254;28;20212;-91
2022/07/06 00:07:47;;;;;;;0.40;0.40;;;22.70;46.70;23.30;96881.00;;;;5054950;28;20208;-91
2022/07/06 00:10:14;;;;;;;0.43;0.43;;;22.70;47.00;23.20;96884.00;;;;5054968;28;20216;-92
2022/07/06 00:12:41;;;;;;;1.43;0.50;;;22.60;47.20;23.10;96883.00;;;;5055160;28;20221;-91
2022/07/06 00:15:09;;;;;;;0.40;0.40;;;22.60;47.30;23.10;96892.00;;;;5054960;28;20566;-91
2022/07/06 00:17:37;;;;;;;0.63;0.53;;;22.50;47.50;23.10;96894.00;;;;5055035;28;20262;-91
2022/07/06 00:20:05;;;;;;;0.30;0.30;;;22.50;47.70;23.00;96888.00;;;;5055001;28;20244;-91
2022/07/06 00:22:33;;;;;;;0.50;0.50;;;22.40;48.10;22.90;96892.00;;;;5054981;28;20205;-91
2022/07/06 00:25:00;;;;;;;1.00;0.60;;;22.30;48.30;22.90;96898.00;;;;5054699;28;20188;-91
2022/07/06 00:27:28;;;;;;;0.57;0.50;;;22.30;48.40;22.80;96907.00;;;;5054972;28;20291;-91
2022/07/06 00:29:55;;;;;;;0.60;0.60;;;22.20;48.40;22.70;96908.00;;;;5054510;28;20228;-91
2022/07/06 00:32:22;;;;;;;0.50;0.50;;;22.20;49.10;22.70;96917.00;;;;5054710;28;20197;-91
2022/07/06 00:34:49;;;;;;;0.40;0.40;;;22.10;48.70;22.70;96903.00;;;;5054711;28;20587;-91
2022/07/06 00:37:16;;;;;;;0.50;0.50;;;22.00;48.70;22.60;96910.00;;;;5054696;28;20285;-90
2022/07/06 00:39:45;;;;;;;0.63;0.50;;;22.00;48.70;22.50;96900.00;;;;5054532;28;20219;-91
2022/07/06 00:42:12;;;;;;;0.67;0.53;;;22.00;48.70;22.50;96901.00;;;;5054515;28;20280;-90
2022/07/06 00:44:39;;;;;;;1.30;0.60;;;21.90;48.70;22.50;96903.00;;;;5054403;28;20205;-91
2022/07/06 00:47:07;;;;;;;0.40;0.40;;;21.90;49.40;22.40;96895.00;;;;5054360;28;20205;-91
2022/07/06 00:52:20;;;;;;;0.60;0.60;;;21.80;48.80;22.30;96889.00;;;;5054304;28;21015;-90
2022/07/06 00:54:49;;;;;;;0.50;0.50;;;21.70;48.90;22.30;96883.00;;;;5054338;28;20473;-90
2022/07/06 00:57:16;;;;;;;1.23;0.63;;;21.70;49.10;22.20;96894.00;;;;5054264;28;20220;-90
2022/07/06 00:59:44;;;;;;;1.43;0.40;;;21.70;49.20;22.20;96894.00;;;;5053984;28;20320;-91
2022/07/06 01:02:11;;;;;;;0.70;0.60;;;21.60;49.30;22.10;96880.00;;;;5053957;28;20666;-90
2022/07/06 01:04:38;;;;;;;0.57;0.50;;;21.60;49.40;22.10;96878.00;;;;5053952;28;20196;-91
2022/07/06 01:07:05;;;;;;;0.70;0.60;;;21.50;49.50;22.00;96880.00;;;;5053947;28;20227;-90
2022/07/06 01:09:33;;;;;;;1.37;0.50;;;21.50;49.70;22.00;96888.00;;;;5053785;28;20255;-90
2022/07/06 01:12:01;;;;;;;0.60;0.60;;;21.50;49.80;21.90;96882.00;;;;5053900;28;20203;-90
2022/07/06 01:14:29;;;;;;;1.80;0.80;;;21.40;49.90;21.90;96880.00;;;;5053915;28;20287;-91
2022/07/06 01:16:57;;;;;;;0.93;0.80;;;21.40;50.00;21.90;96887.00;;;;5053726;28;20226;-91
2022/07/06 01:19:24;;;;;;;1.27;0.70;;;21.40;50.10;21.80;96874.00;;;;5053631;28;20263;-91
2022/07/06 01:21:53;;;;;;;1.17;0.60;;;21.30;50.10;21.80;96884.00;;;;5053695;28;20200;-92
2022/07/06 01:24:21;;;;;;;0.53;0.53;;;21.30;50.30;21.70;96877.00;;;;5053980;28;20204;-91
2022/07/06 01:26:48;;;;;;;0.60;0.60;;;21.20;50.30;21.70;96890.00;;;;5054563;28;20196;-90
2022/07/06 01:29:15;;;;;;;0.97;0.50;;;21.20;50.50;21.70;96880.00;;;;5064111;28;20235;-91
2022/07/06 01:31:49;;;;;;;0.43;0.43;;;21.20;50.70;21.60;96885.00;;;;5071256;28;20201;-91
2022/07/06 01:34:18;;;;;;;1.10;0.63;;;21.10;51.40;21.60;96883.00;;;;5074480;28;20221;-91
2022/07/06 01:36:46;;;;;;;0.50;0.50;;;21.10;50.70;21.60;96883.00;;;;5058247;28;20639;-90
2022/07/06 01:39:15;;;;;;;0.97;0.70;;;21.00;50.80;21.50;96879.00;;;;5054844;28;20622;-91
2022/07/06 01:41:42;;;;;;;1.53;0.60;;;21.00;51.10;21.50;96882.00;;;;5054289;28;20196;-90
2022/07/06 01:44:10;;;;;;;1.53;0.60;;;21.00;51.30;21.40;96879.00;;;;5053849;28;20239;-91
2022/07/06 01:46:37;;;;;;;0.70;0.60;;;21.00;51.40;21.40;96881.00;;;;5054315;28;20262;-91
2022/07/06 01:49:06;;;;;;;1.07;0.70;;;21.00;51.50;21.40;96886.00;;;;5053724;28;20285;-90
2022/07/06 01:51:33;;;;;;;0.53;0.53;;;20.90;51.60;21.40;96882.00;;;;5054292;28;20282;-90
2022/07/06 01:54:00;;;;;;;0.87;0.80;;;20.90;51.60;21.30;96884.00;;;;5054059;28;20231;-91
2022/07/06 01:56:29;;;;;;;0.77;0.77;;;20.80;51.80;21.30;96874.00;;;;5053568;28;20212;-91
2022/07/06 01:58:59;;;;;;;1.40;0.80;;;20.80;51.80;21.20;96883.00;;;;5053647;28;20286;-91
2022/07/06 02:01:26;;;;;;;0.70;0.70;;;20.70;52.50;21.20;96879.00;;;;5054092;28;20223;-91
2022/07/06 02:03:54;;;;;;;0.60;0.60;;;20.80;52.10;21.20;96886.00;;;;5046852;28;20225;-91
2022/07/06 02:06:21;;;;;;;0.50;0.50;;;20.70;52.10;21.10;96884.00;;;;5033464;28;20658;-90
2022/07/06 02:08:51;;;;;;;0.70;0.70;;;20.70;52.30;21.10;96876.00;;;;5033102;28;20253;-90
2022/07/06 02:11:18;;;;;;;0.80;0.80;;;20.60;52.40;21.00;96874.00;;;;5033709;28;20565;-91
2022/07/06 02:13:47;;;;;;;0.80;0.77;;;20.60;52.50;21.00;96881.00;;;;5033039;28;20220;-91
2022/07/06 02:16:14;;;;;;;1.27;0.80;;;20.60;52.80;21.00;96877.00;;;;5032925;28;20247;-91
2022/07/06 02:18:41;;;;;;;4.17;0.80;;;20.50;52.80;21.00;96877.00;;;;5032970;28;20299;-91
2022/07/06 02:21:09;;;;;;;1.10;0.60;;;20.50;52.80;20.90;96885.00;;;;5032951;28;20228;-91
2022/07/06 02:23:36;;;;;;;2.00;0.87;;;20.50;53.00;20.90;96886.00;;;;5033203;28;20293;-90
2022/07/06 02:26:04;;;;;;;0.87;0.77;;;20.40;53.10;20.80;96888.00;;;;5033015;28;20607;-91
2022/07/06 02:28:32;;;;;;;0.70;0.70;;;20.40;53.30;20.80;96890.00;;;;5032841;28;20237;-91
2022/07/06 02:31:00;;;;;;;0.67;0.63;;;20.30;53.40;20.80;96890.00;;;;5032892;28;20221;-91
2022/07/06 02:33:28;;;;;;;0.70;0.70;;;20.30;53.50;20.80;96877.00;;;;5033103;28;20228;-91
2022/07/06 02:35:55;;;;;;;0.93;0.83;;;20.30;53.60;20.70;96880.00;;;;5032939;28;20577;-91
2022/07/06 02:38:22;;;;;;;0.80;0.80;;;20.30;53.70;20.70;96886.00;;;;5032808;28;20241;-90
2022/07/06 02:40:49;;;;;;;0.80;0.80;;;20.30;53.90;20.70;96890.00;;;;5032755;28;20681;-90
2022/07/06 02:43:18;;;;;;;2.00;0.73;;;20.20;53.90;20.70;96901.00;;;;5032707;28;20198;-90
2022/07/06 02:45:45;;;;;;;1.23;0.70;;;20.20;54.10;20.70;96897.00;;;;5032608;28;20725;-90
2022/07/06 02:48:14;;;;;;;0.67;0.67;;;20.20;54.20;20.70;96897.00;;;;5032902;28;20584;-90
2022/07/06 02:50:41;;;;;;;1.43;1.10;;;20.20;54.40;20.60;96902.00;;;;5032437;28;20290;-90
2022/07/06 02:53:08;;;;;;;1.03;0.73;;;20.20;54.50;20.60;96898.00;;;;5032692;28;20201;-91
2022/07/06 02:55:35;;;;;;;1.60;0.77;;;20.10;54.50;20.60;96896.00;;;;5032880;28;20276;-90
2022/07/06 02:58:06;;;;;;;1.60;0.97;;;20.10;54.70;20.60;96896.00;;;;5033153;28;20271;-90
2022/07/06 03:00:33;;;;;;;0.70;0.70;;;20.10;55.10;20.50;96899.00;;;;5038641;28;20217;-92
2022/07/06 03:03:00;;;;;;;3.50;1.00;;;20.10;55.20;20.50;96900.00;;;;5056351;28;20270;-91
2022/07/06 03:05:29;;;;;;;1.87;0.80;;;20.10;55.40;20.50;96911.00;;;;5053902;28;20201;-91
2022/07/06 03:07:56;;;;;;;1.07;0.70;;;20.00;55.60;20.50;96910.00;;;;5055283;28;20255;-91
2022/07/06 03:10:23;;;;;;;2.73;0.83;;;20.00;55.70;20.50;96908.00;;;;5056845;28;20270;-91
2022/07/06 03:12:51;;;;;;;1.40;0.80;;;20.00;55.90;20.50;96912.00;;;;5056776;28;20263;-91
2022/07/06 03:15:18;;;;;;;0.73;0.73;;;20.00;56.00;20.50;96915.00;;;;5056384;28;20217;-90
2022/07/06 03:17:45;;;;;;;0.80;0.80;;;20.00;56.10;20.50;96919.00;;;;5056615;28;20237;-90
2022/07/06 03:20:13;;;;;;;1.13;0.90;;;20.00;56.20;20.40;96921.00;;;;5056238;28;20247;-91
2022/07/06 03:22:42;;;;;;;1.87;0.70;;;20.00;56.40;20.40;96917.00;;;;5056358;28;20231;-90
2022/07/06 03:25:10;;;;;;;1.27;0.83;;;20.00;56.50;20.40;96920.00;;;;5056557;28;20686;-92
2022/07/06 03:27:39;;;;;;;1.33;0.90;;;19.90;56.40;20.40;96919.00;;;;5053987;28;20238;-90
2022/07/06 03:30:07;;;;;;;0.80;0.60;;;19.90;56.50;20.40;96911.00;;;;5035714;28;20229;-91
2022/07/06 03:32:35;;;;;;;0.70;0.70;;;19.90;56.60;20.40;96927.00;;;;5036043;28;20197;-91
2022/07/06 03:35:02;;;;;;;1.47;0.80;;;19.90;56.80;20.40;96916.00;;;;5036004;28;20247;-90
2022/07/06 03:37:29;;;;;;;1.10;0.97;;;19.90;56.90;20.40;96915.00;;;;5035970;28;20194;-90
2022/07/06 03:39:58;;;;;;;0.70;0.70;;;19.90;57.00;20.30;96918.00;;;;5035936;28;20646;-91
2022/07/06 03:42:25;;;;;;;0.80;0.80;;;19.90;57.10;20.30;96911.00;;;;5036142;28;20205;-90
2022/07/06 03:44:52;;;;;;;0.80;0.80;;;19.90;57.10;20.30;96917.00;;;;5037830;28;20195;-91
2022/07/06 03:47:19;;;;;;;0.70;0.70;;;19.80;57.10;20.30;96918.00;;;;5039980;28;20263;-91
2022/07/06 03:49:46;;;;;;;0.70;0.70;;;19.80;57.20;20.30;96911.00;;;;5037595;28;20225;-91
2022/07/06 03:52:14;;;;;;;0.87;0.87;;;19.80;57.30;20.30;96908.00;;;;5036129;28;20193;-91
2022/07/06 03:54:41;;;;;;;2.13;1.00;;;19.80;57.40;20.30;96913.00;;;;5035647;28;20619;-91
2022/07/06 03:57:11;;;;;;;1.93;0.77;;;19.80;57.50;20.30;96902.00;;;;5035769;28;20835;-91
2022/07/06 03:59:38;;;;;;;1.13;0.80;;;19.80;57.70;20.30;96919.00;;;;5037198;28;20225;-91
2022/07/06 04:02:05;;;;;;;0.70;0.70;;;19.80;57.90;20.30;96923.00;;;;5055323;28;20220;-91
2022/07/06 04:04:34;;;;;;;0.87;0.87;;;19.70;57.90;20.20;96925.00;;;;5055174;28;20251;-91
2022/07/06 04:07:01;;;;;;;0.73;0.73;;;19.70;58.00;20.20;96917.00;;;;5055230;28;20302;-90
2022/07/06 04:09:28;;;;;;;0.83;0.80;;;19.70;58.80;20.20;96918.00;;;;5054940;28;20240;-91
2022/07/06 04:11:56;;;;;;;0.70;0.70;;;19.70;58.40;20.20;96922.00;;;;5055222;28;20201;-90
2022/07/06 04:14:25;;;;;;;1.10;1.00;;;19.70;58.60;20.20;96928.00;;;;5053733;28;20205;-91
2022/07/06 04:16:52;;;;;;;1.43;0.90;;;19.70;58.80;20.20;96923.00;;;;5053009;28;20197;-88
2022/07/06 04:19:19;;;;;;;1.47;0.90;;;19.70;58.90;20.20;96935.00;;;;5056358;28;20217;-88
2022/07/06 04:21:46;;;;;;;1.00;0.80;;;19.70;59.20;20.20;96933.00;;;;5051786;28;20224;-89
2022/07/06 04:24:13;;;;;;;2.03;0.80;;;19.70;59.20;20.20;96928.00;;;;5040280;28;20229;-89
2022/07/06 04:26:41;;;;;;;0.87;0.87;;;19.70;59.50;20.20;96932.00;;;;5053834;28;20240;-88
2022/07/06 04:29:08;;;;;;;0.90;0.90;;;19.70;59.60;20.30;96940.00;;;;5058480;28;20291;-87
2022/07/06 04:31:36;;;;;;;0.70;0.70;;;19.70;59.80;20.30;96932.00;;;;5050139;28;20321;-87
2022/07/06 04:34:05;;;;;;;1.03;0.80;;;19.70;60.00;20.30;96931.00;;;;5059512;28;20217;-87
2022/07/06 04:36:32;;;;;;;0.63;0.63;;;19.70;60.00;20.30;96936.00;;;;5051533;28;20201;-87
2022/07/06 04:38:59;;;;;;;0.70;0.70;;;19.80;60.00;20.40;96932.00;;;;5053176;28;20213;-87
2022/07/06 04:41:26;;;;;;;0.93;0.93;;;19.80;60.20;20.40;96935.00;;;;5052398;28;20255;-86
2022/07/06 04:43:53;;;;;;;0.77;0.77;;;19.80;60.40;20.40;96936.00;;;;5059009;28;20228;-87
2022/07/06 04:46:20;;;;;;;0.70;0.70;;;19.80;60.50;20.40;96938.00;;;;5051796;28;20243;-87
2022/07/06 04:48:49;;;;;;;2.87;0.97;;;19.80;60.70;20.50;96937.00;;;;5051831;28;20259;-87
2022/07/06 04:51:17;;;;;;;0.80;0.80;;;19.80;61.00;20.50;96941.00;;;;5056449;28;20263;-86
2022/07/06 04:53:45;;;;;;;3.07;1.40;;;19.90;60.90;20.50;96944.00;;;;5057216;28;20196;-87
2022/07/06 04:56:12;;;;;;;0.70;0.70;;;19.90;61.00;20.50;96943.00;;;;5053307;28;20197;-88
2022/07/06 04:58:39;;;;;;;1.20;1.07;;;19.90;61.40;20.50;96933.00;;;;5053239;28;20251;-86
2022/07/06 05:01:07;;;;;;;1.20;1.10;;;20.00;61.20;20.60;96933.00;;;;5052208;28;20494;-86
2022/07/06 05:03:39;;;;;;;0.63;0.60;;;19.90;65.30;20.60;96941.00;;;;5053093;28;20697;-88
2022/07/06 05:06:09;;;;;;;0.80;0.80;;;20.00;63.40;20.70;96941.00;;;;5052178;28;20239;-87
2022/07/06 05:08:36;;;;;;;0.70;0.70;;;20.10;63.40;20.70;96936.00;;;;5051960;28;20240;-88
2022/07/06 05:11:03;;;;;;;0.80;0.80;;;20.10;62.70;20.80;96939.00;;;;5052368;28;20259;-87
2022/07/06 05:13:30;;;;;;;0.80;0.80;;;20.20;62.50;20.80;96941.00;;;;5052267;28;20759;-87
2022/07/06 05:15:57;;;;;;;0.87;0.80;;;20.20;62.50;20.80;96945.00;;;;5051569;28;20244;-87
2022/07/06 05:18:24;;;;;;;1.10;1.00;;;20.20;62.50;20.90;96954.00;;;;5052500;28;20216;-87
2022/07/06 05:20:51;;;;;;;1.70;0.83;;;20.30;62.50;20.90;96948.00;;;;5052813;28;20228;-88
2022/07/06 05:23:20;;;;;;;0.70;0.70;;;20.30;62.70;20.90;96946.00;;;;5052436;28;20236;-87
2022/07/06 05:25:47;;;;;;;0.70;0.70;;;20.30;62.70;21.00;96952.00;;;;5051735;28;20220;-87
2022/07/06 05:28:14;;;;;;;0.90;0.80;;;20.40;62.70;21.00;96952.00;;;;5058977;28;20307;-87
2022/07/06 05:30:41;;;;;;;1.60;0.90;;;20.40;62.70;21.00;96954.00;;;;5051117;28;20315;-86
2022/07/06 05:33:09;;;;;;;0.80;0.80;;;20.40;62.70;21.10;96954.00;;;;5052114;28;20246;-87
2022/07/06 05:35:36;;;;;;;0.90;0.90;;;20.50;62.70;21.10;96952.00;;;;5051590;28;20221;-87
2022/07/06 05:38:03;;;;;;;1.10;1.00;;;20.50;62.70;21.20;96959.00;;;;5048962;28;20240;-86
2022/07/06 05:40:31;;;;;;;1.63;0.90;;;20.50;62.60;21.20;96966.00;;;;5042680;28;20299;-87
2022/07/06 05:42:59;;;;;;;1.37;0.80;;;20.60;62.90;21.30;96957.00;;;;5045131;28;20200;-87
2022/07/06 05:45:26;;;;;;;1.00;0.87;;;20.70;62.60;21.30;96971.00;;;;5043267;28;20281;-88
2022/07/06 05:50:38;;;;;;;1.37;0.90;;;20.70;61.90;21.40;96971.00;;;;5051183;28;20217;-86
2022/07/06 05:53:07;;;;;;;0.97;0.97;;;20.80;61.80;21.50;96979.00;;;;5050632;28;20228;-88
2022/07/06 05:55:35;;;;;;;0.87;0.87;;;20.80;61.60;21.60;96982.00;;;;5049562;28;20629;-88
2022/07/06 05:58:03;;;;;;;0.93;0.93;;;20.90;61.00;21.60;96987.00;;;;5051314;28;20192;-87
2022/07/06 06:00:30;;;;;;;0.70;0.70;;;20.90;60.60;21.70;96984.00;;;;5051366;28;20206;-86
2022/07/06 06:03:00;;;;;;;0.80;0.80;;;21.00;60.50;21.80;96982.00;;;;5051066;28;20192;-87
2022/07/06 06:05:27;;;;;;;1.20;1.10;;;21.00;60.20;21.90;96987.00;;;;5050099;28;20230;-85
2022/07/06 06:07:54;;;;;;;0.80;0.80;;;21.10;60.30;22.00;96990.00;;;;5045632;28;20558;-88
2022/07/06 06:10:23;;;;;;;2.30;0.73;;;21.20;60.30;22.10;96991.00;;;;5050504;28;20244;-88
2022/07/06 06:12:52;;;;;;;0.70;0.70;;;21.30;60.40;22.20;96992.00;;;;5050174;28;20241;-86
2022/07/06 06:15:19;;;;;;;1.23;0.70;;;21.40;60.50;22.30;96983.00;;;;5048462;28;20248;-88
2022/07/06 06:17:47;;;;;;;1.20;0.77;;;21.50;60.00;22.40;97000.00;;;;5047372;28;20283;-88
2022/07/06 06:20:15;;;;;;;0.80;0.80;;;21.60;59.70;22.60;96993.00;;;;5048908;28;20200;-87
2022/07/06 06:22:48;;;;;;;1.43;0.90;;;21.60;59.70;22.60;96996.00;;;;5047436;28;20252;-87
2022/07/06 06:25:16;;;;;;;1.67;0.97;;;21.70;59.60;22.70;97000.00;;;;5046196;28;20283;-87
2022/07/06 06:27:43;;;;;;;1.03;1.00;;;21.80;59.40;22.80;97012.00;;;;5050776;28;20285;-87
2022/07/06 06:30:14;;;;;;;1.40;1.00;;;21.90;59.20;22.80;97008.00;;;;5056019;28;20248;-87
2022/07/06 06:32:43;;;;;;;1.10;1.00;;;21.90;58.70;22.80;97007.00;;;;5050764;28;20228;-88
2022/07/06 06:35:10;;;;;;;1.20;1.00;;;22.00;58.60;22.80;97003.00;;;;5050282;28;20308;-88
2022/07/06 06:37:38;;;;;;;0.90;0.90;;;22.00;58.30;22.90;96998.00;;;;5049248;28;20299;-87
2022/07/06 06:40:08;;;;;;;0.97;0.87;;;22.10;58.00;22.90;97002.00;;;;5051106;28;20216;-88
2022/07/06 06:42:37;;;;;;;0.90;0.90;;;22.10;57.70;22.90;97002.00;;;;5053985;28;20283;-88
2022/07/06 06:45:06;;;;;;;1.73;1.00;;;22.10;57.70;22.90;97000.00;;;;5054972;28;20219;-89
2022/07/06 06:47:35;;;;;;;0.93;0.83;;;22.10;57.50;22.90;96996.00;;;;5055288;28;20848;-88
2022/07/06 06:50:02;;;;;;;1.90;0.90;;;22.20;57.30;22.90;96993.00;;;;5054689;28;20270;-87
2022/07/06 06:52:29;;;;;;;0.80;0.80;;;22.20;57.20;23.00;96996.00;;;;5055116;28;20212;-87
2022/07/06 06:54:56;;;;;;;1.37;1.10;;;22.30;57.00;23.00;96988.00;;;;5055046;28;20234;-88
2022/07/06 06:57:23;;;;;;;1.00;0.90;;;22.20;56.80;23.00;96991.00;;;;5055284;28;20275;-87
2022/07/06 06:59:50;;;;;;;1.13;1.00;;;22.30;57.00;23.00;96987.00;;;;5054578;28;20248;-88
2022/07/06 07:02:18;;;;;;;1.50;1.23;;;22.30;57.10;23.10;96986.00;;;;5055303;28;20204;-88
2022/07/06 07:04:47;;;;;;;1.07;1.07;;;22.40;56.90;23.20;96976.00;;;;5059984;28;20201;-87
2022/07/06 07:07:14;;;;;;;2.37;0.93;;;22.40;56.70;23.30;96981.00;;;;5051180;28;20311;-87
2022/07/06 07:09:41;;;;;;;1.30;0.97;;;22.50;56.90;23.40;96987.00;;;;5055336;28;20312;-88
2022/07/06 07:12:10;;;;;;;1.17;0.77;;;22.60;57.10;23.50;96980.00;;;;5050650;28;20257;-87
2022/07/06 07:14:37;;;;;;;0.80;0.80;;;22.70;57.30;23.70;96984.00;;;;5051105;28;20237;-88
2022/07/06 07:17:04;;;;;;;1.10;1.00;;;22.80;57.50;23.90;96990.00;;;;5059497;28;20276;-87
2022/07/06 07:19:32;;;;;;;1.30;0.90;;;22.90;57.40;24.10;96997.00;;;;5053604;28;20726;-89
2022/07/06 07:22:00;;;;;;;3.27;1.10;;;23.10;57.50;24.30;97005.00;;;;5053548;28;20619;-89
2022/07/06 07:24:28;;;;;;;2.20;0.97;;;23.20;57.20;24.50;97003.00;;;;5059883;28;20249;-90
2022/07/06 07:26:55;;;;;;;1.43;1.00;;;23.40;56.90;24.60;96996.00;;;;5060215;28;20205;-89
2022/07/06 07:29:22;;;;;;;1.33;0.80;;;23.50;57.10;24.80;96998.00;;;;5053429;28;20537;-89
2022/07/06 07:31:49;;;;;;;1.40;1.30;;;23.60;56.20;25.00;97002.00;;;;5063582;28;20272;-90
2022/07/06 07:34:17;;;;;;;0.93;0.90;;;23.80;55.90;25.20;97006.00;;;;5073155;28;20207;-90
2022/07/06 07:36:44;;;;;;;0.80;0.80;;;24.00;55.30;25.30;97004.00;;;;5058345;28;20290;-90
2022/07/06 07:39:13;;;;;;;2.53;0.97;;;24.10;54.90;25.50;96999.00;;;;5059756;28;20308;-90
2022/07/06 07:41:40;;;;;;;1.47;0.90;;;24.30;54.70;25.60;97003.00;;;;5062333;28;20622;-90
2022/07/06 07:44:07;;;;;;;1.17;0.93;;;24.40;54.60;25.80;97004.00;;;;5053168;28;20200;-90
2022/07/06 07:46:34;;;;;;;1.33;1.03;;;24.60;54.00;25.90;97008.00;;;;5055718;28;20286;-90
2022/07/06 07:49:01;;;;;;;1.30;1.07;;;24.70;53.50;25.90;97014.00;;;;5052935;28;20235;-91
2022/07/06 07:51:28;;;;;;;1.27;1.10;;;24.80;53.00;26.00;97010.00;;;;5051734;28;20224;-91
2022/07/06 07:53:55;;;;;;;6.40;1.30;;;24.90;53.10;26.10;97008.00;;;;5069109;28;20292;-91
2022/07/06 07:56:24;;;;;;;1.47;1.03;;;25.00;53.20;26.30;97010.00;;;;5057629;28;20639;-90
2022/07/06 07:58:51;;;;;;;0.90;0.80;;;25.20;53.60;26.50;97012.00;;;;5052766;28;20260;-91
2022/07/06 08:01:18;;;;;;;1.27;1.00;;;25.30;53.50;26.70;97008.00;;;;5052101;28;20303;-91
2022/07/06 08:03:45;;;;;;;1.00;1.00;;;25.40;53.30;26.90;97009.00;;;;5052796;28;20713;-91
2022/07/06 08:06:13;;;;;;;1.63;0.80;;;25.60;53.20;27.10;97018.00;;;;5056526;28;20291;-92
2022/07/06 08:08:40;;;;;;;0.87;0.87;;;25.80;52.10;27.20;97023.00;;;;5052536;28;20248;-91
2022/07/06 08:11:08;;;;;;;0.80;0.80;;;25.90;51.90;27.40;97025.00;;;;5060967;28;20277;-91
2022/07/06 08:13:37;;;;;;;3.13;1.00;;;26.10;51.60;27.60;97013.00;;;;5063240;28;20212;-91
2022/07/06 08:16:05;;;;;;;1.27;1.17;;;26.30;51.70;27.80;97014.00;;;;5055118;28;20552;-92
2022/07/06 08:18:32;;;;;;;1.70;0.97;;;26.40;51.40;28.00;97023.00;;;;5053986;28;20252;-92
2022/07/06 08:20:59;;;;;;;1.00;0.80;;;26.60;50.90;28.10;97013.00;;;;5037202;28;20663;-88
2022/07/06 08:23:26;;;;;;;0.93;0.90;;;26.80;50.50;28.30;97014.00;;;;5037323;28;20239;-90
2022/07/06 08:25:54;;;;;;;2.97;1.00;;;26.90;50.80;28.50;97026.00;;;;5049599;28;20193;-90
2022/07/06 08:28:21;;;;;;;0.90;0.90;;;27.10;50.50;28.70;97014.00;;;;5051719;28;20213;-91
2022/07/06 08:30:50;;;;;;;1.08;0.82;;;27.20;50.30;28.90;97025.00;;;;5053134;28;20228;-91
2022/07/06 08:33:17;;;;;;;0.80;0.70;;;27.40;50.00;29.00;97022.00;;;;5048233;28;20658;-89
2022/07/06 08:35:44;;;;;;;0.80;0.80;;;27.50;49.60;29.10;97033.00;;;;5052186;28;20717;-89
2022/07/06 08:38:12;;;;;;;1.25;1.17;;;27.70;49.10;29.30;97026.00;;;;5053946;28;20303;-86
2022/07/06 08:40:42;;;;;;;1.48;0.88;;;27.80;48.70;29.40;97030.00;;;;5050919;28;20286;-91
2022/07/06 08:43:10;;;;;;;1.23;1.10;;;27.90;48.30;29.50;97030.00;;;;5052254;28;20291;-90
2022/07/06 08:45:37;;;;;;;2.35;0.93;;;28.00;48.10;29.70;97032.00;;;;5049299;28;20197;-91
2022/07/06 08:48:08;;;;;;;1.05;0.90;;;28.20;47.70;29.80;97037.00;;;;5051463;28;20293;-91
2022/07/06 08:50:36;;;;;;;2.08;0.85;;;28.30;47.10;29.90;97028.00;;;;5045281;28;20192;-92
2022/07/06 08:53:04;;;;;;;1.95;0.80;;;28.40;46.80;30.00;97035.00;;;;5051491;28;20247;-91
2022/07/06 08:55:31;;;;;;;1.25;1.15;;;28.50;47.50;30.10;97036.00;;;;5053391;28;20197;-90
2022/07/06 08:57:59;;;;;;;1.45;1.05;;;28.60;47.80;30.30;97037.00;;;;5052009;28;20298;-91
2022/07/06 09:00:26;;;;;;;1.65;0.98;;;28.70;46.70;30.50;97031.00;;;;5052330;28;20299;-91
2022/07/06 09:02:56;;;;;;;2.05;0.90;;;28.80;47.20;30.70;97036.00;;;;5050372;28;20632;-91
2022/07/06 09:05:25;;;;;;;1.85;1.20;;;28.90;46.80;30.80;97039.00;;;;5050031;28;20250;-90
2022/07/06 09:07:54;;;;;;;1.30;0.90;;;29.10;46.20;31.00;97039.00;;;;5051354;28;20291;-90
2022/07/06 09:10:23;;;;;;;1.65;0.90;;;29.20;46.40;31.10;97039.00;;;;5045587;28;20237;-88
2022/07/06 09:12:50;;;;;;;1.75;1.10;;;29.30;46.50;31.30;97040.00;;;;5045397;28;20755;-90
2022/07/06 09:15:17;;;;;;;0.88;0.88;;;29.50;46.40;31.50;97039.00;;;;5051306;28;20220;-89
2022/07/06 09:17:45;;;;;;;1.10;1.00;;;29.60;46.30;31.60;97038.00;;;;5032608;28;20240;-89
2022/07/06 09:20:14;;;;;;;1.05;1.05;;;29.80;46.20;31.80;97039.00;;;;5046199;28;20267;-89
2022/07/06 09:22:43;;;;;;;1.92;1.33;;;30.00;45.50;31.90;97040.00;;;;5055949;28;20197;-89
2022/07/06 09:25:16;;;;;;;2.75;1.10;;;30.20;44.80;32.00;97048.00;;;;5049478;28;21556;-88
2022/07/06 09:27:47;;;;;;;1.20;0.98;;;30.30;44.40;32.10;97046.00;;;;5050157;28;20199;-88
2022/07/06 09:30:15;;;;;;;1.13;0.80;;;30.40;44.10;32.20;97041.00;;;;5050818;28;20292;-89
2022/07/06 09:32:44;;;;;;;0.85;0.82;;;30.50;44.20;32.30;97052.00;;;;5048067;28;20303;-89
2022/07/06 09:35:22;;;;;;;1.00;0.93;;;30.70;43.90;32.40;97052.00;;;;5042516;28;20236;-89
2022/07/06 09:38:02;;;;;;;1.27;0.90;;;30.70;42.60;32.40;97054.00;;;;5050088;28;20229;-89
2022/07/06 09:40:33;;;;;;;1.27;1.00;;;30.80;41.80;32.20;97051.00;;;;5059012;28;20716;-89
2022/07/06 09:43:16;;;;;;;1.23;0.88;;;30.80;41.90;32.20;97045.00;;;;5046244;28;20193;-88
2022/07/06 09:45:45;;;;;;;1.40;0.85;;;30.80;41.80;32.30;97048.00;;;;5039828;28;20255;-89
2022/07/06 09:48:18;;;;;;;0.90;0.77;;;30.90;43.00;32.50;97050.00;;;;5053058;28;20216;-89
2022/07/06 09:50:48;;;;;;;1.98;0.88;;;30.90;42.80;32.70;97047.00;;;;5052308;28;20235;-89
2022/07/06 09:53:16;;;;;;;0.60;0.60;;;31.00;43.00;33.00;97057.00;;;;5049426;28;20310;-88
2022/07/06 09:55:48;;;;;;;2.60;1.10;;;31.10;42.90;33.30;97048.00;;;;5056979;28;20657;-89
2022/07/06 09:58:16;;;;;;;1.10;0.95;;;31.30;42.70;33.60;97044.00;;;;5046886;28;20803;-89
2022/07/06 10:00:44;;;;;;;1.08;1.00;;;31.40;42.50;33.80;97055.00;;;;5053365;28;20292;-89
2022/07/06 10:03:12;;;;;;;1.90;0.90;;;31.70;41.90;34.00;97059.00;;;;5051209;28;20208;-88
2022/07/06 10:05:42;;;;;;;2.47;0.90;;;31.90;42.10;34.20;97048.00;;;;5050489;28;20311;-89
2022/07/06 10:08:11;;;;;;;0.80;0.80;;;32.10;41.70;34.40;97053.00;;;;5042203;28;20228;-89
2022/07/06 10:10:42;;;;;;;0.73;0.50;;;32.30;41.40;34.60;97056.00;;;;5044352;28;20308;-89
2022/07/06 10:13:10;;;;;;;0.90;0.90;;;32.60;40.80;34.70;97057.00;;;;5042559;28;20307;-88
2022/07/06 10:15:40;;;;;;;0.70;0.70;;;32.80;40.60;34.80;97051.00;;;;5046778;28;20220;-89
2022/07/06 10:18:10;;;;;;;0.68;0.68;;;33.00;40.30;34.80;97048.00;;;;5048823;28;20366;-89
2022/07/06 10:20:40;;;;;;;0.80;0.80;;;33.10;40.00;34.90;97047.00;;;;5046875;28;20279;-89
2022/07/06 10:23:09;;;;;;;1.10;0.65;;;33.20;39.40;34.90;97053.00;;;;5050818;28;20201;-88
2022/07/06 10:25:37;;;;;;;0.65;0.60;;;33.40;38.90;34.90;97051.00;;;;5051273;28;20280;-88
2022/07/06 10:28:14;;;;;;;1.52;0.75;;;33.40;39.10;34.90;97051.00;;;;5051467;28;20204;-89
2022/07/06 10:30:44;;;;;;;1.90;0.77;;;33.50;38.20;34.80;97054.00;;;;5049760;28;20227;-89
2022/07/06 10:33:14;;;;;;;0.77;0.73;;;33.50;37.80;34.50;97053.00;;;;5047227;28;20307;-89
2022/07/06 10:35:42;;;;;;;1.48;0.70;;;33.50;37.80;34.30;97051.00;;;;5047068;28;20193;-89
2022/07/06 10:38:11;;;;;;;2.03;1.15;;;33.40;37.60;34.20;97053.00;;;;5048649;28;20315;-88
2022/07/06 10:43:38;;;;;;;1.52;0.95;;;33.30;37.20;33.90;97053.00;;;;5045329;28;20797;-89
2022/07/06 10:46:11;;;;;;;0.65;0.60;;;33.30;36.10;33.70;97042.00;;;;5044397;28;20233;-89
2022/07/06 10:48:40;;;;;;;0.70;0.70;;;33.20;37.00;33.60;97049.00;;;;5048192;28;20224;-89
2022/07/06 10:51:08;;;;;;;1.95;0.82;;;33.10;37.40;33.60;97036.00;;;;5054173;28;20641;-89
2022/07/06 10:53:39;;;;;;;0.90;0.82;;;33.20;36.90;33.70;97042.00;;;;5055618;28;20346;-90
2022/07/06 10:56:08;;;;;;;0.60;0.60;;;33.20;37.80;33.80;97042.00;;;;5055383;28;20200;-89
2022/07/06 10:58:52;;;;;;;2.28;0.98;;;33.30;38.00;33.80;97043.00;;;;5054117;28;20516;-90
2022/07/06 11:01:23;;;;;;;1.77;0.70;;;33.30;37.90;33.90;97032.00;;;;5053536;28;20231;-90
2022/07/06 11:04:05;;;;;;;0.95;0.50;;;33.30;37.50;33.90;97030.00;;;;5053912;28;20204;-87
2022/07/06 11:06:35;;;;;;;0.60;0.60;;;33.30;37.10;33.80;97037.00;;;;5053455;28;20204;-87